Time;durP1;ratioP1;P1;durP2;ratioP2;P2;SDS_P1;SDS_P2;PMS_P1;PMS_P2;Temp;Humidity;BMP_temperature;BMP_pressure;BME280_temperature;BME280_humidity;BME280_pressure;Samples;Min_cycle;Max_cycle;Signal;HPM_P1;HPM_P2
2023/11/18 00:01:41;;;;;;;12.93;5.03;;;24.60;99.40;;;;;;5001322;28;20026;-68
2023/11/18 00:04:15;;;;;;;15.73;5.03;;;24.50;99.30;;;;;;5009830;28;20106;-67
2023/11/18 00:06:45;;;;;;;10.50;4.30;;;24.60;99.70;;;;;;5007031;28;20018;-66
2023/11/18 00:09:15;;;;;;;12.30;5.05;;;24.50;99.40;;;;;;5007860;28;20376;-67
2023/11/18 00:11:42;;;;;;;17.42;9.82;;;24.40;99.40;;;;;;5011666;28;20034;-68
2023/11/18 00:14:11;;;;;;;22.98;6.20;;;24.30;99.70;;;;;;5013098;28;20025;-67
2023/11/18 00:16:38;;;;;;;23.15;6.18;;;24.20;99.90;;;;;;5017237;28;20022;-65
2023/11/18 00:19:09;;;;;;;24.75;5.78;;;24.20;99.90;;;;;;5013096;28;20072;-67
2023/11/18 00:21:36;;;;;;;22.40;5.97;;;24.10;99.90;;;;;;5013085;28;20504;-66
2023/11/18 00:24:02;;;;;;;12.98;5.88;;;24.10;99.90;;;;;;5012878;28;20022;-66
2023/11/18 00:26:29;;;;;;;13.73;7.18;;;24.00;99.90;;;;;;5012024;28;20014;-67
2023/11/18 00:28:55;;;;;;;17.45;6.57;;;23.90;99.90;;;;;;5012759;28;20068;-66
2023/11/18 00:31:22;;;;;;;17.95;6.32;;;23.80;99.90;;;;;;5012790;28;20060;-67
2023/11/18 00:33:48;;;;;;;17.10;6.90;;;23.70;99.90;;;;;;5010783;28;20511;-66
2023/11/18 00:36:15;;;;;;;19.85;6.47;;;23.70;99.90;;;;;;5011969;28;20044;-66
2023/11/18 00:38:41;;;;;;;21.50;7.50;;;23.60;99.90;;;;;;5010700;28;20465;-65
2023/11/18 00:41:08;;;;;;;22.38;8.27;;;23.50;99.90;;;;;;5013092;28;20033;-66
2023/11/18 00:43:34;;;;;;;18.50;7.28;;;23.40;99.90;;;;;;5013110;28;20040;-67
2023/11/18 00:46:03;;;;;;;19.50;6.85;;;23.40;99.90;;;;;;5012992;28;20086;-66
2023/11/18 00:48:30;;;;;;;18.42;6.90;;;23.30;99.90;;;;;;5012014;28;20138;-66
2023/11/18 00:50:56;;;;;;;19.70;7.38;;;23.20;99.90;;;;;;5012982;28;20087;-65
2023/11/18 00:53:24;;;;;;;26.90;11.55;;;23.10;99.90;;;;;;5012794;28;20039;-65
2023/11/18 00:55:50;;;;;;;21.48;9.60;;;23.10;99.90;;;;;;5013247;28;20037;-65
2023/11/18 00:58:17;;;;;;;17.30;9.25;;;22.90;99.90;;;;;;5011764;28;20073;-66
2023/11/18 01:00:43;;;;;;;26.50;8.20;;;22.80;99.90;;;;;;5011902;28;20057;-66
2023/11/18 01:03:10;;;;;;;22.02;8.45;;;22.80;99.90;;;;;;5012912;28;20057;-65
2023/11/18 01:05:37;;;;;;;17.70;7.55;;;22.70;99.90;;;;;;5010614;28;20056;-66
2023/11/18 01:08:05;;;;;;;22.33;8.00;;;22.60;99.90;;;;;;5012523;28;20129;-67
2023/11/18 01:10:31;;;;;;;25.88;7.55;;;22.50;99.90;;;;;;5011488;28;20484;-67
2023/11/18 01:12:57;;;;;;;28.58;11.23;;;22.40;99.90;;;;;;5011156;28;20507;-67
2023/11/18 01:15:24;;;;;;;47.80;23.58;;;22.40;99.90;;;;;;5012109;28;20049;-65
2023/11/18 01:17:51;;;;;;;44.33;24.20;;;22.30;99.90;;;;;;5010225;28;20519;-66
2023/11/18 01:20:21;;;;;;;49.40;25.48;;;22.20;99.90;;;;;;5011851;28;20046;-67
2023/11/18 01:22:49;;;;;;;48.88;25.98;;;22.20;99.90;;;;;;5009548;28;20054;-66
2023/11/18 01:25:19;;;;;;;41.67;24.38;;;22.10;99.90;;;;;;5012133;28;20050;-65
2023/11/18 01:27:48;;;;;;;39.00;10.40;;;22.00;99.90;;;;;;5010731;28;20062;-66
2023/11/18 01:30:15;;;;;;;32.13;11.18;;;22.00;99.90;;;;;;5010301;28;20137;-66
2023/11/18 01:32:41;;;;;;;47.88;26.48;;;21.90;99.90;;;;;;5011989;28;20065;-69
2023/11/18 01:35:10;;;;;;;35.70;11.50;;;21.90;99.90;;;;;;5011031;28;20520;-65
2023/11/18 01:37:37;;;;;;;34.42;11.00;;;21.80;99.90;;;;;;5010668;28;20054;-68
2023/11/18 01:40:05;;;;;;;33.03;11.95;;;21.80;99.90;;;;;;5009953;28;20612;-67
2023/11/18 01:42:31;;;;;;;43.28;13.35;;;21.70;99.90;;;;;;5011831;28;20064;-70
2023/11/18 01:44:59;;;;;;;33.95;12.98;;;21.70;99.90;;;;;;5009619;28;20088;-67
2023/11/18 01:47:27;;;;;;;30.40;13.48;;;21.60;99.90;;;;;;5002600;28;20069;-69
2023/11/18 01:49:53;;;;;;;49.90;14.20;;;21.50;99.90;;;;;;5011729;28;20042;-69
2023/11/18 01:52:21;;;;;;;36.88;13.05;;;21.50;99.90;;;;;;4994440;28;20091;-68
2023/11/18 01:54:48;;;;;;;43.40;13.10;;;21.40;99.90;;;;;;5011319;28;20042;-68
2023/11/18 01:57:16;;;;;;;58.22;28.63;;;21.30;99.90;;;;;;5008307;28;20567;-68
2023/11/18 01:59:43;;;;;;;48.95;13.68;;;21.30;99.90;;;;;;5011598;28;20051;-67
2023/11/18 02:02:09;;;;;;;53.88;13.68;;;21.30;99.90;;;;;;5010142;28;20150;-66
2023/11/18 02:04:37;;;;;;;45.78;14.82;;;21.20;99.90;;;;;;5011605;28;20054;-68
2023/11/18 02:07:08;;;;;;;38.17;12.10;;;21.20;99.90;;;;;;5011468;28;20052;-68
2023/11/18 02:09:36;;;;;;;52.53;11.30;;;21.20;99.90;;;;;;5011629;28;20053;-67
2023/11/18 02:12:34;;;;;;;41.75;11.23;;;21.20;99.90;;;;;;5010422;28;20059;-66
2023/11/18 02:15:09;;;;;;;52.20;12.48;;;21.10;99.90;;;;;;4991875;28;20430;-67
2023/11/18 02:17:38;;;;;;;44.67;11.43;;;21.10;99.90;;;;;;5005599;28;20081;-65
2023/11/18 02:20:13;;;;;;;41.95;11.15;;;21.00;99.90;;;;;;5009387;28;20404;-65
2023/11/18 02:22:47;;;;;;;55.97;12.65;;;21.00;99.90;;;;;;5011085;28;20509;-67
2023/11/18 02:25:18;;;;;;;58.88;13.32;;;21.00;99.90;;;;;;5009178;28;20110;-67
2023/11/18 02:27:45;;;;;;;43.15;11.65;;;21.00;99.90;;;;;;5011078;28;20052;-69
2023/11/18 02:30:16;;;;;;;37.75;11.68;;;21.00;99.90;;;;;;5009107;28;20047;-68
2023/11/18 02:33:07;;;;;;;57.80;13.30;;;21.00;99.90;;;;;;5010673;28;20066;-66
2023/11/18 02:35:41;;;;;;;47.22;13.70;;;21.00;99.90;;;;;;5009893;28;20061;-66
2023/11/18 02:38:10;;;;;;;62.05;13.85;;;20.90;99.90;;;;;;5010763;28;20061;-67
2023/11/18 02:40:40;;;;;;;61.33;13.93;;;20.90;99.90;;;;;;5009791;28;20058;-67
2023/11/18 02:43:09;;;;;;;62.65;14.05;;;20.90;99.90;;;;;;5010732;28;20052;-67
2023/11/18 02:45:37;;;;;;;53.05;14.60;;;20.80;99.90;;;;;;4998677;28;20489;-67
2023/11/18 02:48:06;;;;;;;57.20;14.48;;;20.80;99.90;;;;;;5010687;28;20051;-67
2023/11/18 02:50:35;;;;;;;72.53;15.25;;;20.80;99.90;;;;;;5008867;28;20055;-67
2023/11/18 02:53:02;;;;;;;64.95;16.73;;;20.70;99.90;;;;;;5010539;28;20070;-65
2023/11/18 02:55:29;;;;;;;66.40;16.98;;;20.70;99.90;;;;;;5010074;28;20047;-66
2023/11/18 02:57:56;;;;;;;61.58;17.70;;;20.70;99.90;;;;;;5010622;28;20045;-66
2023/11/18 03:00:23;;;;;;;67.43;18.73;;;20.70;99.90;;;;;;5008544;28;20138;-65
2023/11/18 03:02:51;;;;;;;76.13;18.77;;;20.50;99.90;;;;;;5010422;28;20144;-65
2023/11/18 03:05:26;;;;;;;74.90;20.27;;;20.50;99.90;;;;;;5010365;28;20045;-69
2023/11/18 03:07:57;;;;;;;77.18;28.25;;;20.50;99.90;;;;;;5009149;28;20108;-66
2023/11/18 03:10:24;;;;;;;67.75;18.67;;;20.60;99.90;;;;;;5005009;28;20059;-66
2023/11/18 03:12:55;;;;;;;71.28;20.88;;;20.50;99.90;;;;;;5007597;28;20129;-67
2023/11/18 03:15:22;;;;;;;67.75;19.90;;;20.50;99.90;;;;;;5001684;28;20503;-67
2023/11/18 03:17:50;;;;;;;72.85;20.38;;;20.40;99.90;;;;;;5009213;28;20053;-67
2023/11/18 03:20:17;;;;;;;73.68;22.25;;;20.40;99.90;;;;;;5010443;28;20055;-68
2023/11/18 03:22:47;;;;;;;58.85;18.85;;;20.30;99.90;;;;;;5012770;28;20048;-67
2023/11/18 03:25:17;;;;;;;76.50;20.08;;;20.30;99.90;;;;;;5011023;28;20050;-67
2023/11/18 03:27:47;;;;;;;83.35;19.90;;;20.20;99.90;;;;;;5010436;28;22200;-68
2023/11/18 03:30:13;;;;;;;63.90;19.63;;;20.20;99.90;;;;;;5013809;28;20134;-69
2023/11/18 03:32:40;;;;;;;79.03;20.88;;;20.20;99.90;;;;;;5011580;28;20075;-67
2023/11/18 03:35:10;;;;;;;97.38;30.88;;;20.20;99.90;;;;;;5011783;28;20052;-67
2023/11/18 03:37:41;;;;;;;92.82;25.08;;;20.10;99.90;;;;;;5010374;28;20058;-67
2023/11/18 03:40:14;;;;;;;91.00;33.50;;;20.10;99.90;;;;;;5008289;28;20137;-66
2023/11/18 03:42:47;;;;;;;85.88;27.33;;;20.10;99.90;;;;;;5008377;28;20394;-67
2023/11/18 03:45:18;;;;;;;99.78;26.58;;;20.00;99.90;;;;;;5009922;28;20556;-67
2023/11/18 03:47:45;;;;;;;85.47;29.05;;;20.00;99.90;;;;;;5013778;28;20079;-67
2023/11/18 03:50:13;;;;;;;76.43;23.40;;;20.00;99.90;;;;;;5014188;28;20559;-66
2023/11/18 03:52:40;;;;;;;73.88;22.52;;;19.90;99.90;;;;;;5013149;28;20075;-66
2023/11/18 03:55:07;;;;;;;76.65;23.63;;;19.90;99.90;;;;;;5014367;28;20088;-68
2023/11/18 03:57:34;;;;;;;82.53;21.20;;;19.90;99.90;;;;;;5014192;28;20466;-67
2023/11/18 04:00:01;;;;;;;72.57;20.58;;;19.90;99.90;;;;;;5013982;28;20047;-67
2023/11/18 04:02:28;;;;;;;74.88;21.98;;;19.90;99.90;;;;;;5012226;28;20064;-68
2023/11/18 04:04:55;;;;;;;64.15;22.17;;;19.90;99.90;;;;;;5013919;28;20072;-67
2023/11/18 04:07:21;;;;;;;76.90;22.13;;;19.80;99.90;;;;;;5011665;28;20517;-66
2023/11/18 04:09:48;;;;;;;58.97;19.83;;;19.80;99.90;;;;;;5013745;28;20051;-68
2023/11/18 04:12:16;;;;;;;75.75;23.20;;;19.80;99.90;;;;;;5013731;28;20072;-66
2023/11/18 04:14:42;;;;;;;86.75;23.17;;;19.80;99.90;;;;;;5012554;28;20054;-67
2023/11/18 04:17:09;;;;;;;75.93;22.65;;;19.80;99.90;;;;;;5013456;28;20085;-69
2023/11/18 04:19:36;;;;;;;75.55;23.25;;;19.80;99.90;;;;;;5013451;28;20510;-68
2023/11/18 04:22:04;;;;;;;94.38;23.55;;;19.80;99.90;;;;;;5011584;28;20102;-67
2023/11/18 04:24:30;;;;;;;87.00;24.35;;;19.70;99.90;;;;;;5011916;28;20046;-70
2023/11/18 04:26:57;;;;;;;85.13;25.10;;;19.80;99.90;;;;;;5010613;28;20135;-66
2023/11/18 04:29:23;;;;;;;75.50;23.90;;;19.70;99.90;;;;;;5013101;28;20052;-66
2023/11/18 04:31:50;;;;;;;74.63;24.67;;;19.70;99.90;;;;;;5012199;28;20094;-68
2023/11/18 04:34:16;;;;;;;90.15;27.48;;;19.70;99.90;;;;;;5010919;28;20058;-73
2023/11/18 04:36:43;;;;;;;88.65;27.48;;;19.70;99.90;;;;;;5008291;28;20062;-71
2023/11/18 04:39:11;;;;;;;96.53;32.17;;;19.70;99.90;;;;;;5009834;28;20066;-69
2023/11/18 04:41:38;;;;;;;97.82;28.13;;;19.70;99.90;;;;;;5010502;28;20408;-70
2023/11/18 04:44:05;;;;;;;92.07;29.20;;;19.60;99.90;;;;;;5009186;28;20070;-68
2023/11/18 04:46:31;;;;;;;155.68;35.75;;;19.60;99.90;;;;;;5010430;28;20530;-69
2023/11/18 04:48:58;;;;;;;123.60;41.88;;;19.60;99.90;;;;;;5011426;28;20095;-69
2023/11/18 04:51:25;;;;;;;121.03;45.80;;;19.60;99.90;;;;;;5012103;28;20181;-69
2023/11/18 04:53:51;;;;;;;113.68;33.45;;;19.50;99.90;;;;;;5010773;28;20052;-69
2023/11/18 04:56:18;;;;;;;91.57;31.25;;;19.50;99.90;;;;;;5004682;28;20088;-69
2023/11/18 04:58:46;;;;;;;94.60;32.90;;;19.50;99.90;;;;;;5011897;28;20050;-68
2023/11/18 05:01:14;;;;;;;91.97;32.47;;;19.50;99.90;;;;;;5010641;28;20059;-69
2023/11/18 05:03:40;;;;;;;89.40;31.30;;;19.50;99.90;;;;;;4996787;28;20042;-69
2023/11/18 05:06:08;;;;;;;83.43;32.45;;;19.50;99.90;;;;;;5010633;28;20046;-69
2023/11/18 05:08:35;;;;;;;96.88;32.17;;;19.50;99.90;;;;;;5011849;28;20052;-72
2023/11/18 05:11:04;;;;;;;102.80;34.67;;;19.40;99.90;;;;;;5011717;28;20050;-71
2023/11/18 05:13:32;;;;;;;102.75;34.25;;;19.40;99.90;;;;;;5011143;28;20046;-68
2023/11/18 05:15:58;;;;;;;95.72;36.08;;;19.30;99.90;;;;;;5011662;28;20522;-67
2023/11/18 05:18:29;;;;;;;116.68;37.78;;;19.30;99.90;;;;;;5013040;28;20050;-69
2023/11/18 05:20:57;;;;;;;83.53;36.38;;;19.30;99.90;;;;;;5012181;28;20060;-68
2023/11/18 05:23:24;;;;;;;92.93;36.10;;;19.30;99.90;;;;;;5010377;28;20052;-69
2023/11/18 05:25:50;;;;;;;95.07;37.92;;;19.30;99.90;;;;;;5011995;28;20048;-68
2023/11/18 05:28:17;;;;;;;105.50;43.22;;;19.20;99.90;;;;;;5011392;28;20059;-71
2023/11/18 05:30:46;;;;;;;114.15;48.28;;;19.20;99.90;;;;;;5012052;28;20047;-68
2023/11/18 05:33:17;;;;;;;114.18;47.83;;;19.20;99.90;;;;;;5011757;28;20074;-68
2023/11/18 05:35:59;;;;;;;106.45;44.28;;;19.20;99.90;;;;;;5011970;28;20060;-69
2023/11/18 05:38:27;;;;;;;131.23;46.10;;;19.20;99.90;;;;;;5010112;28;20079;-69
2023/11/18 05:40:57;;;;;;;107.93;42.45;;;19.20;99.90;;;;;;5011051;28;20067;-68
2023/11/18 05:43:40;;;;;;;125.10;41.90;;;19.20;99.90;;;;;;5011448;28;20051;-69
2023/11/18 05:46:20;;;;;;;79.30;31.50;;;19.10;99.90;;;;;;5011480;28;20465;-69
2023/11/18 05:48:48;;;;;;;86.15;30.00;;;19.10;99.90;;;;;;5009899;28;20199;-69
2023/11/18 05:51:18;;;;;;;71.28;26.75;;;19.10;99.90;;;;;;5011670;28;20051;-67
2023/11/18 05:53:45;;;;;;;67.28;26.35;;;19.10;99.90;;;;;;5011291;28;20055;-67
2023/11/18 05:56:18;;;;;;;78.80;25.38;;;19.00;99.90;;;;;;5009617;28;20072;-68
2023/11/18 05:58:45;;;;;;;76.30;23.25;;;19.00;99.90;;;;;;5011600;28;20123;-68
2023/11/18 06:01:14;;;;;;;64.00;24.88;;;19.00;99.90;;;;;;5010210;28;20079;-66
2023/11/18 06:03:42;;;;;;;49.92;21.98;;;19.00;99.90;;;;;;5011508;28;20166;-67
2023/11/18 06:06:10;;;;;;;66.07;22.85;;;19.00;99.90;;;;;;5009750;28;20519;-68
2023/11/18 06:08:41;;;;;;;54.33;21.10;;;18.90;99.90;;;;;;5010810;28;20060;-67
2023/11/18 06:11:14;;;;;;;54.35;22.38;;;18.90;99.90;;;;;;5010380;28;20054;-69
2023/11/18 06:13:49;;;;;;;46.83;21.38;;;18.90;99.90;;;;;;5007556;28;20386;-69
2023/11/18 06:16:26;;;;;;;58.88;23.50;;;18.90;99.90;;;;;;5011352;28;20126;-70
2023/11/18 06:18:55;;;;;;;49.38;22.38;;;18.90;99.90;;;;;;5010049;28;20047;-68
2023/11/18 06:21:30;;;;;;;52.60;21.45;;;18.90;99.90;;;;;;5011232;28;20052;-67
2023/11/18 06:24:00;;;;;;;47.45;20.42;;;18.90;99.90;;;;;;5009260;28;20393;-68
2023/11/18 06:26:28;;;;;;;44.90;20.08;;;19.00;99.90;;;;;;5011553;28;20066;-68
2023/11/18 06:28:56;;;;;;;50.92;20.13;;;19.00;99.90;;;;;;5011066;28;20114;-67
2023/11/18 06:31:25;;;;;;;46.08;19.70;;;19.00;99.90;;;;;;5009898;28;20154;-67
2023/11/18 06:33:52;;;;;;;38.78;19.77;;;19.00;99.90;;;;;;5010935;28;20507;-67
2023/11/18 06:36:22;;;;;;;31.45;18.92;;;19.10;99.90;;;;;;5011217;28;20054;-69
2023/11/18 06:38:53;;;;;;;31.25;16.52;;;19.10;99.90;;;;;;5009066;28;20569;-69
2023/11/18 06:41:33;;;;;;;32.97;17.52;;;19.10;99.90;;;;;;5012411;28;20038;-69
2023/11/18 06:44:09;;;;;;;26.65;16.08;;;19.20;99.90;;;;;;5010767;28;20391;-68
2023/11/18 06:46:39;;;;;;;33.90;16.40;;;19.20;99.90;;;;;;5010603;28;20513;-69
2023/11/18 06:49:15;;;;;;;28.60;15.43;;;19.20;99.90;;;;;;5008532;28;20320;-69
2023/11/18 06:51:42;;;;;;;30.15;15.77;;;19.20;99.90;;;;;;5005637;28;20075;-68
2023/11/18 06:54:09;;;;;;;32.15;15.70;;;19.30;99.90;;;;;;5010578;28;20476;-67
2023/11/18 06:56:51;;;;;;;22.88;16.30;;;19.30;99.90;;;;;;5010526;28;20047;-67
2023/11/18 06:59:18;;;;;;;23.05;15.23;;;19.30;99.90;;;;;;5009812;28;20043;-69
2023/11/18 07:01:44;;;;;;;26.05;16.38;;;19.30;99.90;;;;;;5009418;28;20066;-69
2023/11/18 07:04:11;;;;;;;26.80;16.77;;;19.40;99.90;;;;;;5010166;28;20053;-69
2023/11/18 07:06:38;;;;;;;39.83;22.10;;;19.40;99.90;;;;;;5010167;28;20069;-70
2023/11/18 07:09:12;;;;;;;31.85;20.05;;;19.40;99.90;;;;;;5008222;28;20062;-71
2023/11/18 07:11:40;;;;;;;36.35;23.17;;;19.40;99.90;;;;;;4990800;28;20544;-71
2023/11/18 07:14:09;;;;;;;38.67;20.90;;;19.50;99.90;;;;;;5007456;28;20048;-70
2023/11/18 07:16:36;;;;;;;30.20;20.98;;;19.50;99.90;;;;;;5008262;28;20048;-70
2023/11/18 07:19:03;;;;;;;33.10;21.67;;;19.50;99.90;;;;;;5010083;28;20097;-67
2023/11/18 07:21:30;;;;;;;29.05;20.05;;;19.50;99.90;;;;;;5009208;28;20067;-64
2023/11/18 07:23:59;;;;;;;28.70;20.42;;;19.50;99.90;;;;;;5009023;28;20048;-67
2023/11/18 07:26:26;;;;;;;28.73;18.60;;;19.50;99.90;;;;;;5009418;28;20066;-69
2023/11/18 07:28:52;;;;;;;30.55;19.90;;;19.60;99.90;;;;;;5007136;28;20046;-66
2023/11/18 07:31:19;;;;;;;29.17;19.13;;;19.60;99.90;;;;;;5008395;28;20166;-68
2023/11/18 07:33:49;;;;;;;37.65;18.83;;;19.60;99.90;;;;;;5010163;28;20121;-66
2023/11/18 07:36:17;;;;;;;40.88;20.65;;;19.60;99.90;;;;;;5009897;28;20166;-67
2023/11/18 07:38:44;;;;;;;44.65;21.50;;;19.60;99.90;;;;;;5009871;28;20456;-68
2023/11/18 07:41:23;;;;;;;43.97;21.80;;;19.70;99.90;;;;;;5008600;28;20164;-67
2023/11/18 07:43:52;;;;;;;47.25;26.17;;;19.70;99.90;;;;;;5010505;28;20477;-66
2023/11/18 07:46:21;;;;;;;48.30;27.08;;;19.70;99.90;;;;;;5010042;28;20087;-66
2023/11/18 07:48:52;;;;;;;51.15;26.35;;;19.70;99.90;;;;;;5009438;28;20058;-66
2023/11/18 07:51:23;;;;;;;77.05;39.88;;;19.70;99.90;;;;;;5007944;28;20062;-65
2023/11/18 07:53:50;;;;;;;69.95;28.30;;;19.60;99.90;;;;;;5009389;28;20469;-67
2023/11/18 07:56:16;;;;;;;117.03;52.63;;;19.60;99.90;;;;;;5012959;28;20044;-67
2023/11/18 07:58:46;;;;;;;118.55;54.65;;;19.60;99.90;;;;;;5012078;28;20052;-68
2023/11/18 08:01:16;;;;;;;107.10;53.97;;;19.60;99.90;;;;;;5014557;28;20078;-67
2023/11/18 08:03:43;;;;;;;107.13;55.50;;;19.50;99.90;;;;;;5012020;28;20066;-67
2023/11/18 08:06:12;;;;;;;116.10;61.97;;;19.50;99.90;;;;;;5011981;28;20052;-69
2023/11/18 08:08:38;;;;;;;120.38;61.65;;;19.30;99.90;;;;;;5010056;28;20090;-69
2023/11/18 08:11:06;;;;;;;115.68;59.13;;;19.30;99.90;;;;;;5011268;28;20450;-68
2023/11/18 08:13:32;;;;;;;111.90;58.15;;;19.30;99.90;;;;;;5012176;28;20384;-69
2023/11/18 08:15:59;;;;;;;109.63;60.22;;;19.20;99.90;;;;;;5013105;28;20062;-68
2023/11/18 08:18:27;;;;;;;110.43;58.50;;;19.10;99.90;;;;;;5006043;28;20075;-70
2023/11/18 08:20:54;;;;;;;100.50;57.00;;;19.10;99.90;;;;;;5010092;28;20105;-69
2023/11/18 08:23:20;;;;;;;107.57;56.63;;;19.10;99.90;;;;;;5010047;28;20043;-71
2023/11/18 08:25:47;;;;;;;112.05;55.25;;;19.10;99.90;;;;;;5007886;28;20066;-68
2023/11/18 08:28:13;;;;;;;92.65;51.85;;;19.00;99.90;;;;;;5009793;28;20048;-69
2023/11/18 08:30:40;;;;;;;93.47;51.90;;;19.00;99.90;;;;;;5009891;28;20514;-69
2023/11/18 08:33:09;;;;;;;88.93;51.47;;;19.00;99.90;;;;;;5010898;28;20077;-69
2023/11/18 08:35:36;;;;;;;91.95;51.45;;;19.00;99.90;;;;;;5013157;28;20068;-68
2023/11/18 08:38:04;;;;;;;84.57;49.08;;;19.00;99.90;;;;;;5011070;28;20054;-68
2023/11/18 08:40:30;;;;;;;98.18;49.45;;;19.00;99.90;;;;;;5011125;28;20050;-67
2023/11/18 08:42:57;;;;;;;85.65;48.10;;;19.00;99.90;;;;;;5011154;28;20060;-66
2023/11/18 08:45:29;;;;;;;89.55;50.25;;;18.90;99.90;;;;;;5012622;28;20144;-66
2023/11/18 08:48:06;;;;;;;79.50;47.78;;;18.90;99.90;;;;;;5012627;28;20063;-67
2023/11/18 08:50:34;;;;;;;102.25;54.45;;;18.90;99.90;;;;;;5012836;28;20062;-68
2023/11/18 08:53:04;;;;;;;111.60;62.78;;;18.80;99.90;;;;;;5011036;28;20099;-66
2023/11/18 08:55:40;;;;;;;121.65;62.17;;;18.80;99.90;;;;;;5012352;28;20106;-66
2023/11/18 08:58:27;;;;;;;117.30;67.47;;;18.80;99.90;;;;;;5010805;28;20063;-67
2023/11/18 09:03:53;;;;;;;142.55;80.93;;;18.60;99.90;;;;;;4979688;28;20532;-68
2023/11/18 09:06:25;;;;;;;133.52;74.15;;;18.50;99.90;;;;;;4987294;28;20063;-68
2023/11/18 09:08:52;;;;;;;111.05;59.53;;;18.50;99.90;;;;;;4990155;28;20068;-69
2023/11/18 09:11:19;;;;;;;115.57;60.08;;;18.50;99.90;;;;;;4990587;28;20067;-69
2023/11/18 09:13:51;;;;;;;103.47;56.03;;;18.40;99.90;;;;;;4978644;28;20069;-69
2023/11/18 09:16:17;;;;;;;95.85;51.85;;;18.40;99.90;;;;;;4969212;28;20057;-66
2023/11/18 09:18:44;;;;;;;100.47;52.70;;;18.40;99.90;;;;;;4978862;28;20073;-68
2023/11/18 09:21:14;;;;;;;96.28;48.70;;;18.40;99.90;;;;;;4990351;28;20496;-68
2023/11/18 09:23:42;;;;;;;81.38;47.80;;;18.30;99.90;;;;;;4990362;28;20053;-68
2023/11/18 09:26:10;;;;;;;87.85;51.58;;;18.30;99.90;;;;;;4989700;28;20064;-69
2023/11/18 09:28:37;;;;;;;83.22;50.05;;;18.30;99.90;;;;;;4979520;28;20080;-67
2023/11/18 09:31:11;;;;;;;81.72;44.75;;;18.30;99.90;;;;;;4990128;28;20085;-67
2023/11/18 09:33:39;;;;;;;79.13;44.88;;;18.20;99.90;;;;;;4990128;28;20113;-68
2023/11/18 09:36:12;;;;;;;86.80;46.47;;;18.20;99.90;;;;;;4989500;28;20056;-67
2023/11/18 09:38:43;;;;;;;86.72;46.33;;;18.20;99.90;;;;;;4979810;28;20052;-69
2023/11/18 09:41:13;;;;;;;70.05;43.70;;;18.30;99.90;;;;;;5009368;28;20072;-69
2023/11/18 09:43:52;;;;;;;75.95;44.17;;;18.30;99.90;;;;;;5009563;28;20044;-68
2023/11/18 09:46:32;;;;;;;82.07;42.33;;;18.30;99.90;;;;;;5011749;28;20793;-69
2023/11/18 09:49:16;;;;;;;69.90;40.42;;;18.20;99.90;;;;;;5010501;28;20126;-67
2023/11/18 09:51:48;;;;;;;58.78;38.53;;;18.20;99.90;;;;;;5012095;28;20070;-68
2023/11/18 09:54:56;;;;;;;62.30;36.13;;;18.20;99.90;;;;;;5010181;28;20103;-67
2023/11/18 09:57:39;;;;;;;66.38;39.88;;;18.20;99.90;;;;;;4994234;28;20189;-67
2023/11/18 10:02:52;;;;;;;56.03;33.55;;;18.10;99.90;;;;;;5011600;28;20558;-67
2023/11/18 10:05:22;;;;;;;56.97;33.28;;;18.00;99.90;;;;;;5008089;28;20120;-67
2023/11/18 10:07:48;;;;;;;51.35;31.48;;;18.00;99.90;;;;;;5011207;28;20054;-69
2023/11/18 10:10:16;;;;;;;59.60;36.00;;;18.00;99.90;;;;;;5009701;28;20054;-68
2023/11/18 10:12:52;;;;;;;55.78;33.83;;;17.90;99.90;;;;;;5009456;28;20438;-69
2023/11/18 10:15:23;;;;;;;55.50;34.40;;;17.90;99.90;;;;;;5009155;28;20047;-67
2023/11/18 10:17:59;;;;;;;56.67;34.90;;;17.90;99.90;;;;;;5010611;28;20133;-66
2023/11/18 10:20:47;;;;;;;64.00;38.22;;;17.90;99.90;;;;;;5010865;28;20057;-68
2023/11/18 10:23:22;;;;;;;59.10;37.08;;;17.80;99.90;;;;;;5009281;28;20455;-68
2023/11/18 10:25:50;;;;;;;63.88;38.25;;;17.90;99.90;;;;;;5011558;28;20057;-67
2023/11/18 10:28:33;;;;;;;60.83;39.63;;;17.80;99.90;;;;;;5009701;28;20049;-67
2023/11/18 10:31:04;;;;;;;60.67;38.22;;;17.80;99.90;;;;;;5011172;28;20049;-65
2023/11/18 10:33:35;;;;;;;58.90;39.85;;;17.80;99.90;;;;;;5011203;28;20063;-68
2023/11/18 10:36:03;;;;;;;61.53;38.92;;;17.70;99.90;;;;;;5011256;28;20516;-67
2023/11/18 10:38:31;;;;;;;62.20;40.85;;;17.70;99.90;;;;;;5009019;28;20061;-66
2023/11/18 10:41:02;;;;;;;67.60;39.22;;;17.70;99.90;;;;;;5011167;28;20080;-66
2023/11/18 10:43:35;;;;;;;65.90;39.92;;;17.60;99.90;;;;;;5011113;28;20056;-67
2023/11/18 10:46:13;;;;;;;59.15;37.58;;;17.60;99.90;;;;;;5009053;28;20430;-66
2023/11/18 10:48:50;;;;;;;60.60;38.30;;;17.60;99.90;;;;;;5010882;28;20057;-66
2023/11/18 10:51:26;;;;;;;62.65;38.60;;;17.60;99.90;;;;;;5009819;28;20192;-67
2023/11/18 10:53:58;;;;;;;74.05;47.00;;;17.50;99.90;;;;;;4996115;28;20532;-68
2023/11/18 10:56:28;;;;;;;73.10;47.78;;;17.50;99.90;;;;;;5010768;28;20061;-66
2023/11/18 10:59:07;;;;;;;76.35;47.30;;;17.50;99.90;;;;;;5009666;28;20067;-67
2023/11/18 11:01:44;;;;;;;75.40;50.80;;;17.50;99.90;;;;;;5010939;28;20583;-66
2023/11/18 11:04:10;;;;;;;;;;;17.50;99.90;;;;;;4991554;28;20064;-67
2023/11/18 11:06:43;;;;;;;92.30;56.65;;;17.50;99.90;;;;;;5007609;28;19945;-67
2023/11/18 11:09:15;;;;;;;88.07;55.10;;;17.40;99.90;;;;;;5009694;28;20064;-67
2023/11/18 11:11:51;;;;;;;73.78;50.20;;;17.50;99.90;;;;;;5008684;28;20126;-65
2023/11/18 11:14:20;;;;;;;82.97;53.33;;;17.50;99.90;;;;;;5010010;28;20057;-65
2023/11/18 11:16:53;;;;;;;78.38;52.92;;;17.40;99.90;;;;;;5008512;28;20644;-65
2023/11/18 11:19:44;;;;;;;79.85;49.92;;;17.40;99.90;;;;;;5010026;28;20056;-67
2023/11/18 11:22:20;;;;;;;69.80;48.83;;;17.40;99.90;;;;;;5010190;28;20138;-66
2023/11/18 11:24:56;;;;;;;78.00;50.40;;;17.40;99.90;;;;;;5008449;28;20056;-67
2023/11/18 11:27:35;;;;;;;72.60;49.00;;;17.30;99.90;;;;;;5008407;28;20089;-67
2023/11/18 11:30:38;;;;;;;85.22;51.70;;;17.30;99.90;;;;;;5000313;28;20062;-67
2023/11/18 11:33:17;;;;;;;74.97;49.78;;;17.40;99.90;;;;;;4988564;28;20154;-68
2023/11/18 11:35:52;;;;;;;80.10;50.55;;;17.40;99.90;;;;;;5008370;28;20061;-67
2023/11/18 11:38:19;;;;;;;79.85;51.13;;;17.40;99.90;;;;;;4992241;28;20064;-66
2023/11/18 11:40:49;;;;;;;71.25;49.83;;;17.40;99.90;;;;;;5010113;28;20057;-66
2023/11/18 11:43:21;;;;;;;78.55;49.03;;;17.50;99.90;;;;;;5007166;28;20530;-68
2023/11/18 11:45:55;;;;;;;74.43;48.00;;;17.40;99.90;;;;;;5009864;28;20078;-66
2023/11/18 11:48:27;;;;;;;79.03;50.65;;;17.50;99.90;;;;;;5010283;28;20070;-66
2023/11/18 11:51:14;;;;;;;74.03;46.75;;;17.50;99.90;;;;;;5008259;28;20062;-67
2023/11/18 11:53:48;;;;;;;68.57;44.40;;;17.50;99.90;;;;;;5010341;28;20083;-68
2023/11/18 11:56:20;;;;;;;73.15;48.47;;;17.50;99.90;;;;;;5007715;28;20062;-67
2023/11/18 11:58:53;;;;;;;76.85;45.35;;;17.50;99.90;;;;;;5009956;28;20055;-67
2023/11/18 12:01:38;;;;;;;73.63;48.97;;;17.40;99.90;;;;;;5006837;28;20520;-66
2023/11/18 12:04:20;;;;;;;64.28;46.00;;;17.30;99.90;;;;;;4996411;28;20061;-66
2023/11/18 12:06:53;;;;;;;76.13;46.70;;;17.30;99.90;;;;;;5010537;28;20057;-66
2023/11/18 12:09:20;;;;;;;80.70;47.85;;;17.30;99.90;;;;;;5011404;28;20062;-67
2023/11/18 12:11:51;;;;;;;84.03;52.20;;;17.30;99.90;;;;;;5012883;28;20069;-68
2023/11/18 12:17:21;;;;;;;73.50;47.47;;;17.20;99.90;;;;;;5013601;28;20054;-67
2023/11/18 12:19:56;;;;;;;71.88;48.10;;;17.20;99.90;;;;;;5011357;28;20161;-68
2023/11/18 12:22:34;;;;;;;78.53;48.97;;;17.20;99.90;;;;;;5012685;28;20148;-68
2023/11/18 12:25:06;;;;;;;81.28;49.70;;;17.10;99.90;;;;;;5010990;28;20090;-67
2023/11/18 12:27:54;;;;;;;88.18;51.45;;;17.10;99.90;;;;;;5014868;28;20062;-68
2023/11/18 12:30:23;;;;;;;83.53;56.53;;;17.00;99.90;;;;;;5013431;28;20069;-66
2023/11/18 12:33:10;;;;;;;78.15;54.25;;;17.00;99.90;;;;;;5012579;28;20097;-68
2023/11/18 12:36:01;;;;;;;90.43;55.90;;;17.00;99.90;;;;;;5013252;28;20136;-68
2023/11/18 12:38:46;;;;;;;85.20;56.00;;;17.00;99.90;;;;;;5013138;28;20124;-67
2023/11/18 12:41:37;;;;;;;84.07;54.78;;;17.00;99.90;;;;;;5011649;28;20112;-67
2023/11/18 12:44:06;;;;;;;83.38;55.20;;;17.00;99.90;;;;;;5011220;28;20144;-67
2023/11/18 12:47:09;;;;;;;88.13;57.90;;;16.80;99.90;;;;;;5013040;28;20078;-68
2023/11/18 12:49:41;;;;;;;78.72;56.30;;;16.90;99.90;;;;;;5012097;28;20088;-67
2023/11/18 12:52:10;;;;;;;79.97;54.30;;;16.80;99.90;;;;;;5011469;28;20081;-68
2023/11/18 12:54:37;;;;;;;87.40;57.92;;;16.80;99.90;;;;;;5012812;28;20127;-66